sensor_id;sensor_type;location;lat;lon;timestamp;temperature;humidity
77582;DHT22;66726;52.388;9.986;2023-02-20T00:01:45;5.70;99.80
77582;DHT22;66726;52.388;9.986;2023-02-20T00:04:14;5.70;99.90
77582;DHT22;66726;52.388;9.986;2023-02-20T00:06:42;5.70;99.90
77582;DHT22;66726;52.388;9.986;2023-02-20T00:09:11;5.70;99.90
77582;DHT22;66726;52.388;9.986;2023-02-20T00:11:39;5.70;99.90
77582;DHT22;66726;52.388;9.986;2023-02-20T00:14:07;5.70;99.90
77582;DHT22;66726;52.388;9.986;2023-02-20T00:16:37;5.70;99.90
77582;DHT22;66726;52.388;9.986;2023-02-20T00:19:05;5.70;99.90
77582;DHT22;66726;52.388;9.986;2023-02-20T00:21:33;5.80;99.90
77582;DHT22;66726;52.388;9.986;2023-02-20T00:24:02;5.80;99.90
77582;DHT22;66726;52.388;9.986;2023-02-20T00:26:31;5.80;99.90
77582;DHT22;66726;52.388;9.986;2023-02-20T00:28:59;5.90;99.90
77582;DHT22;66726;52.388;9.986;2023-02-20T00:31:27;5.90;99.70
77582;DHT22;66726;52.388;9.986;2023-02-20T00:33:56;6.00;99.70
77582;DHT22;66726;52.388;9.986;2023-02-20T00:36:24;6.00;99.30
77582;DHT22;66726;52.388;9.986;2023-02-20T00:38:52;6.10;99.20
77582;DHT22;66726;52.388;9.986;2023-02-20T00:41:20;6.00;99.20
77582;DHT22;66726;52.388;9.986;2023-02-20T00:43:48;6.00;99.20
77582;DHT22;66726;52.388;9.986;2023-02-20T00:46:16;6.10;99.10
77582;DHT22;66726;52.388;9.986;2023-02-20T00:48:44;6.10;98.90
77582;DHT22;66726;52.388;9.986;2023-02-20T00:51:14;6.10;99.00
77582;DHT22;66726;52.388;9.986;2023-02-20T00:53:42;6.10;99.00
77582;DHT22;66726;52.388;9.986;2023-02-20T00:56:10;6.10;98.80
77582;DHT22;66726;52.388;9.986;2023-02-20T00:58:39;6.10;98.80
77582;DHT22;66726;52.388;9.986;2023-02-20T01:01:07;6.20;98.90
77582;DHT22;66726;52.388;9.986;2023-02-20T01:03:35;6.20;98.60
77582;DHT22;66726;52.388;9.986;2023-02-20T01:06:04;6.30;98.60
77582;DHT22;66726;52.388;9.986;2023-02-20T01:08:33;6.30;98.50
77582;DHT22;66726;52.388;9.986;2023-02-20T01:11:01;6.30;98.60
77582;DHT22;66726;52.388;9.986;2023-02-20T01:13:30;6.30;98.60
77582;DHT22;66726;52.388;9.986;2023-02-20T01:15:58;6.30;98.50
77582;DHT22;66726;52.388;9.986;2023-02-20T01:18:27;6.30;98.30
77582;DHT22;66726;52.388;9.986;2023-02-20T01:20:55;6.30;98.40
77582;DHT22;66726;52.388;9.986;2023-02-20T01:23:23;6.20;98.40
77582;DHT22;66726;52.388;9.986;2023-02-20T01:25:53;6.30;98.40
77582;DHT22;66726;52.388;9.986;2023-02-20T01:28:21;6.30;98.40
77582;DHT22;66726;52.388;9.986;2023-02-20T01:30:49;6.30;98.30
77582;DHT22;66726;52.388;9.986;2023-02-20T01:33:17;6.20;98.40
77582;DHT22;66726;52.388;9.986;2023-02-20T01:35:45;6.20;98.40
77582;DHT22;66726;52.388;9.986;2023-02-20T01:38:13;6.20;98.30
77582;DHT22;66726;52.388;9.986;2023-02-20T01:40:46;6.30;98.30
77582;DHT22;66726;52.388;9.986;2023-02-20T01:43:17;6.30;98.20
77582;DHT22;66726;52.388;9.986;2023-02-20T01:45:45;6.30;98.20
77582;DHT22;66726;52.388;9.986;2023-02-20T01:48:19;6.30;98.10
77582;DHT22;66726;52.388;9.986;2023-02-20T01:50:52;6.20;98.20
77582;DHT22;66726;52.388;9.986;2023-02-20T01:53:26;6.20;98.00
77582;DHT22;66726;52.388;9.986;2023-02-20T01:56:00;6.30;98.00
77582;DHT22;66726;52.388;9.986;2023-02-20T01:58:38;6.30;97.90
77582;DHT22;66726;52.388;9.986;2023-02-20T02:01:09;6.30;97.80
77582;DHT22;66726;52.388;9.986;2023-02-20T02:03:40;6.30;97.80
77582;DHT22;66726;52.388;9.986;2023-02-20T02:06:12;6.20;98.20
77582;DHT22;66726;52.388;9.986;2023-02-20T02:08:43;6.20;97.80
77582;DHT22;66726;52.388;9.986;2023-02-20T02:11:15;6.20;97.80
77582;DHT22;66726;52.388;9.986;2023-02-20T02:13:46;6.20;97.70
77582;DHT22;66726;52.388;9.986;2023-02-20T02:16:21;6.20;97.80
77582;DHT22;66726;52.388;9.986;2023-02-20T02:19:02;6.20;97.80
77582;DHT22;66726;52.388;9.986;2023-02-20T02:22:10;6.20;97.80
77582;DHT22;66726;52.388;9.986;2023-02-20T02:25:32;6.10;97.70
77582;DHT22;66726;52.388;9.986;2023-02-20T02:28:45;6.10;97.70
77582;DHT22;66726;52.388;9.986;2023-02-20T02:31:59;6.10;97.70
77582;DHT22;66726;52.388;9.986;2023-02-20T02:35:03;6.10;97.90
77582;DHT22;66726;52.388;9.986;2023-02-20T02:38:02;6.10;97.80
77582;DHT22;66726;52.388;9.986;2023-02-20T02:40:40;6.10;97.90
77582;DHT22;66726;52.388;9.986;2023-02-20T02:43:16;6.10;98.10
77582;DHT22;66726;52.388;9.986;2023-02-20T02:45:52;6.10;98.00
77582;DHT22;66726;52.388;9.986;2023-02-20T02:48:25;6.10;98.00
77582;DHT22;66726;52.388;9.986;2023-02-20T02:51:02;6.10;98.00
77582;DHT22;66726;52.388;9.986;2023-02-20T02:53:37;6.10;97.90
77582;DHT22;66726;52.388;9.986;2023-02-20T02:56:07;6.10;97.90
77582;DHT22;66726;52.388;9.986;2023-02-20T02:58:49;6.00;97.90
77582;DHT22;66726;52.388;9.986;2023-02-20T03:01:21;6.00;97.90
77582;DHT22;66726;52.388;9.986;2023-02-20T03:03:51;6.10;97.90
77582;DHT22;66726;52.388;9.986;2023-02-20T03:06:24;6.00;98.20
77582;DHT22;66726;52.388;9.986;2023-02-20T03:09:05;6.00;97.80
77582;DHT22;66726;52.388;9.986;2023-02-20T03:11:38;6.00;97.90
77582;DHT22;66726;52.388;9.986;2023-02-20T03:14:11;6.10;97.90
77582;DHT22;66726;52.388;9.986;2023-02-20T03:17:07;6.10;97.80
77582;DHT22;66726;52.388;9.986;2023-02-20T03:19:43;6.10;98.00
77582;DHT22;66726;52.388;9.986;2023-02-20T03:22:18;6.00;98.00
77582;DHT22;66726;52.388;9.986;2023-02-20T03:24:52;6.10;98.10
77582;DHT22;66726;52.388;9.986;2023-02-20T03:27:27;6.10;98.10
77582;DHT22;66726;52.388;9.986;2023-02-20T03:30:08;6.10;98.10
77582;DHT22;66726;52.388;9.986;2023-02-20T03:32:39;6.10;98.20
77582;DHT22;66726;52.388;9.986;2023-02-20T03:35:27;6.10;98.20
77582;DHT22;66726;52.388;9.986;2023-02-20T03:38:20;6.10;98.10
77582;DHT22;66726;52.388;9.986;2023-02-20T03:41:10;6.10;98.10
77582;DHT22;66726;52.388;9.986;2023-02-20T03:44:00;6.10;98.20
77582;DHT22;66726;52.388;9.986;2023-02-20T03:46:34;6.20;98.20
77582;DHT22;66726;52.388;9.986;2023-02-20T03:49:07;6.20;98.10
77582;DHT22;66726;52.388;9.986;2023-02-20T03:51:39;6.20;98.10
77582;DHT22;66726;52.388;9.986;2023-02-20T03:54:08;6.20;98.50
77582;DHT22;66726;52.388;9.986;2023-02-20T03:56:41;6.20;98.10
77582;DHT22;66726;52.388;9.986;2023-02-20T03:59:13;6.20;98.10
77582;DHT22;66726;52.388;9.986;2023-02-20T04:01:48;6.20;98.10
77582;DHT22;66726;52.388;9.986;2023-02-20T04:04:28;6.20;98.10
77582;DHT22;66726;52.388;9.986;2023-02-20T04:07:01;6.30;98.20
77582;DHT22;66726;52.388;9.986;2023-02-20T04:09:35;6.20;98.20
77582;DHT22;66726;52.388;9.986;2023-02-20T04:12:14;6.30;98.10
77582;DHT22;66726;52.388;9.986;2023-02-20T04:14:48;6.30;98.10
77582;DHT22;66726;52.388;9.986;2023-02-20T04:17:22;6.30;98.10
77582;DHT22;66726;52.388;9.986;2023-02-20T04:19:54;6.30;98.00
77582;DHT22;66726;52.388;9.986;2023-02-20T04:22:26;6.40;98.10
77582;DHT22;66726;52.388;9.986;2023-02-20T04:24:58;6.40;98.10
77582;DHT22;66726;52.388;9.986;2023-02-20T04:27:31;6.40;98.10
77582;DHT22;66726;52.388;9.986;2023-02-20T04:30:00;6.30;98.20
77582;DHT22;66726;52.388;9.986;2023-02-20T04:32:28;6.30;98.20
77582;DHT22;66726;52.388;9.986;2023-02-20T04:34:56;6.30;98.10
77582;DHT22;66726;52.388;9.986;2023-02-20T04:37:24;6.40;98.10
77582;DHT22;66726;52.388;9.986;2023-02-20T04:39:52;6.40;98.10
77582;DHT22;66726;52.388;9.986;2023-02-20T04:42:21;6.40;97.90
77582;DHT22;66726;52.388;9.986;2023-02-20T04:44:50;6.40;97.90
77582;DHT22;66726;52.388;9.986;2023-02-20T04:47:18;6.40;98.00
77582;DHT22;66726;52.388;9.986;2023-02-20T04:49:47;6.40;98.00
77582;DHT22;66726;52.388;9.986;2023-02-20T04:52:15;6.40;98.00
77582;DHT22;66726;52.388;9.986;2023-02-20T04:54:43;6.40;97.90
77582;DHT22;66726;52.388;9.986;2023-02-20T04:57:11;6.40;97.90
77582;DHT22;66726;52.388;9.986;2023-02-20T04:59:39;6.40;97.90
77582;DHT22;66726;52.388;9.986;2023-02-20T05:02:08;6.40;97.90
77582;DHT22;66726;52.388;9.986;2023-02-20T05:04:37;6.50;97.90
77582;DHT22;66726;52.388;9.986;2023-02-20T05:07:05;6.50;98.00
77582;DHT22;66726;52.388;9.986;2023-02-20T05:09:33;6.50;98.00
77582;DHT22;66726;52.388;9.986;2023-02-20T05:12:01;6.50;98.10
77582;DHT22;66726;52.388;9.986;2023-02-20T05:14:29;6.40;98.10
77582;DHT22;66726;52.388;9.986;2023-02-20T05:16:57;6.40;98.20
77582;DHT22;66726;52.388;9.986;2023-02-20T05:19:27;6.40;98.30
77582;DHT22;66726;52.388;9.986;2023-02-20T05:21:55;6.40;98.40
77582;DHT22;66726;52.388;9.986;2023-02-20T05:24:41;6.50;98.40
77582;DHT22;66726;52.388;9.986;2023-02-20T05:27:10;6.40;98.50
77582;DHT22;66726;52.388;9.986;2023-02-20T05:29:44;6.40;98.60
77582;DHT22;66726;52.388;9.986;2023-02-20T05:32:13;6.40;98.60
77582;DHT22;66726;52.388;9.986;2023-02-20T05:34:44;6.50;98.70
77582;DHT22;66726;52.388;9.986;2023-02-20T05:37:14;6.50;98.60
77582;DHT22;66726;52.388;9.986;2023-02-20T05:39:44;6.40;98.60
77582;DHT22;66726;52.388;9.986;2023-02-20T05:42:13;6.50;98.60
77582;DHT22;66726;52.388;9.986;2023-02-20T05:44:43;6.50;98.40
77582;DHT22;66726;52.388;9.986;2023-02-20T05:47:11;6.50;98.40
77582;DHT22;66726;52.388;9.986;2023-02-20T05:49:39;6.50;98.30
77582;DHT22;66726;52.388;9.986;2023-02-20T05:52:11;6.60;98.20
77582;DHT22;66726;52.388;9.986;2023-02-20T05:54:40;6.60;98.30
77582;DHT22;66726;52.388;9.986;2023-02-20T05:57:10;6.60;98.20
77582;DHT22;66726;52.388;9.986;2023-02-20T05:59:39;6.60;98.20
77582;DHT22;66726;52.388;9.986;2023-02-20T06:02:07;6.70;98.20
77582;DHT22;66726;52.388;9.986;2023-02-20T06:04:35;6.60;98.20
77582;DHT22;66726;52.388;9.986;2023-02-20T06:07:03;6.60;98.30
77582;DHT22;66726;52.388;9.986;2023-02-20T06:09:33;6.60;98.30
77582;DHT22;66726;52.388;9.986;2023-02-20T06:12:01;6.60;98.30
77582;DHT22;66726;52.388;9.986;2023-02-20T06:14:29;6.70;98.20
77582;DHT22;66726;52.388;9.986;2023-02-20T06:16:57;6.70;98.10
77582;DHT22;66726;52.388;9.986;2023-02-20T06:19:25;6.70;98.20
77582;DHT22;66726;52.388;9.986;2023-02-20T06:21:53;6.60;98.20
77582;DHT22;66726;52.388;9.986;2023-02-20T06:24:24;6.80;98.00
77582;DHT22;66726;52.388;9.986;2023-02-20T06:26:54;6.80;97.80
77582;DHT22;66726;52.388;9.986;2023-02-20T06:29:23;6.80;97.90
77582;DHT22;66726;52.388;9.986;2023-02-20T06:31:51;6.80;97.90
77582;DHT22;66726;52.388;9.986;2023-02-20T06:34:19;6.80;97.90
77582;DHT22;66726;52.388;9.986;2023-02-20T06:36:49;6.80;97.80
77582;DHT22;66726;52.388;9.986;2023-02-20T06:39:17;6.80;97.70
77582;DHT22;66726;52.388;9.986;2023-02-20T06:41:45;6.80;97.70
77582;DHT22;66726;52.388;9.986;2023-02-20T06:44:14;6.90;97.60
77582;DHT22;66726;52.388;9.986;2023-02-20T06:46:42;6.90;97.50
77582;DHT22;66726;52.388;9.986;2023-02-20T06:49:10;6.90;97.60
77582;DHT22;66726;52.388;9.986;2023-02-20T06:51:40;6.80;97.60
77582;DHT22;66726;52.388;9.986;2023-02-20T06:54:09;6.90;97.60
77582;DHT22;66726;52.388;9.986;2023-02-20T06:56:38;6.80;97.60
77582;DHT22;66726;52.388;9.986;2023-02-20T06:59:07;6.90;97.50
77582;DHT22;66726;52.388;9.986;2023-02-20T07:01:41;6.90;97.40
77582;DHT22;66726;52.388;9.986;2023-02-20T07:04:15;7.00;97.40
77582;DHT22;66726;52.388;9.986;2023-02-20T07:06:44;7.00;97.40
77582;DHT22;66726;52.388;9.986;2023-02-20T07:09:13;7.00;97.30
77582;DHT22;66726;52.388;9.986;2023-02-20T07:11:42;7.00;97.30
77582;DHT22;66726;52.388;9.986;2023-02-20T07:14:10;7.00;97.20
77582;DHT22;66726;52.388;9.986;2023-02-20T07:16:40;7.00;97.40
77582;DHT22;66726;52.388;9.986;2023-02-20T07:19:08;7.10;97.00
77582;DHT22;66726;52.388;9.986;2023-02-20T07:21:37;7.20;96.80
77582;DHT22;66726;52.388;9.986;2023-02-20T07:24:05;7.10;96.90
77582;DHT22;66726;52.388;9.986;2023-02-20T07:26:34;7.10;97.00
77582;DHT22;66726;52.388;9.986;2023-02-20T07:29:05;7.20;96.80
77582;DHT22;66726;52.388;9.986;2023-02-20T07:31:33;7.30;96.50
77582;DHT22;66726;52.388;9.986;2023-02-20T07:34:03;7.30;96.50
77582;DHT22;66726;52.388;9.986;2023-02-20T07:36:31;7.20;96.50
77582;DHT22;66726;52.388;9.986;2023-02-20T07:39:00;7.30;96.40
77582;DHT22;66726;52.388;9.986;2023-02-20T07:41:32;7.30;96.30
77582;DHT22;66726;52.388;9.986;2023-02-20T07:44:01;7.30;96.50
77582;DHT22;66726;52.388;9.986;2023-02-20T07:46:30;7.30;95.80
77582;DHT22;66726;52.388;9.986;2023-02-20T07:49:00;7.40;95.60
77582;DHT22;66726;52.388;9.986;2023-02-20T07:51:30;7.40;95.60
77582;DHT22;66726;52.388;9.986;2023-02-20T07:53:59;7.40;95.50
77582;DHT22;66726;52.388;9.986;2023-02-20T07:56:29;7.50;95.30
77582;DHT22;66726;52.388;9.986;2023-02-20T07:58:57;7.40;95.50
77582;DHT22;66726;52.388;9.986;2023-02-20T08:01:26;7.40;95.50
77582;DHT22;66726;52.388;9.986;2023-02-20T08:03:55;7.40;95.40
77582;DHT22;66726;52.388;9.986;2023-02-20T08:06:23;7.50;95.00
77582;DHT22;66726;52.388;9.986;2023-02-20T08:08:53;7.50;95.00
77582;DHT22;66726;52.388;9.986;2023-02-20T08:11:22;7.50;95.10
77582;DHT22;66726;52.388;9.986;2023-02-20T08:13:51;7.60;94.80
77582;DHT22;66726;52.388;9.986;2023-02-20T08:16:21;7.60;94.70
77582;DHT22;66726;52.388;9.986;2023-02-20T08:18:49;7.60;94.70
77582;DHT22;66726;52.388;9.986;2023-02-20T08:21:17;7.60;94.60
77582;DHT22;66726;52.388;9.986;2023-02-20T08:23:45;7.50;94.70
77582;DHT22;66726;52.388;9.986;2023-02-20T08:26:15;7.60;94.70
77582;DHT22;66726;52.388;9.986;2023-02-20T08:28:45;7.60;94.50
77582;DHT22;66726;52.388;9.986;2023-02-20T08:31:14;7.70;94.50
77582;DHT22;66726;52.388;9.986;2023-02-20T08:33:57;7.60;94.40
77582;DHT22;66726;52.388;9.986;2023-02-20T08:36:26;7.70;94.20
77582;DHT22;66726;52.388;9.986;2023-02-20T08:38:54;7.70;94.20
77582;DHT22;66726;52.388;9.986;2023-02-20T08:41:24;7.80;94.30
77582;DHT22;66726;52.388;9.986;2023-02-20T08:43:52;7.70;94.20
77582;DHT22;66726;52.388;9.986;2023-02-20T08:46:20;7.80;94.30
77582;DHT22;66726;52.388;9.986;2023-02-20T08:48:49;7.80;94.30
77582;DHT22;66726;52.388;9.986;2023-02-20T08:51:18;7.80;94.20
77582;DHT22;66726;52.388;9.986;2023-02-20T08:53:46;7.80;94.30
77582;DHT22;66726;52.388;9.986;2023-02-20T08:56:18;7.90;94.20
77582;DHT22;66726;52.388;9.986;2023-02-20T08:58:47;7.90;94.10
77582;DHT22;66726;52.388;9.986;2023-02-20T09:01:15;8.00;93.90
77582;DHT22;66726;52.388;9.986;2023-02-20T09:03:44;8.00;93.80
77582;DHT22;66726;52.388;9.986;2023-02-20T09:06:12;8.10;94.00
77582;DHT22;66726;52.388;9.986;2023-02-20T09:08:40;8.10;94.10
77582;DHT22;66726;52.388;9.986;2023-02-20T09:11:09;8.20;94.20
77582;DHT22;66726;52.388;9.986;2023-02-20T09:13:41;8.30;94.20
77582;DHT22;66726;52.388;9.986;2023-02-20T09:16:12;8.30;93.70
77582;DHT22;66726;52.388;9.986;2023-02-20T09:18:42;8.40;93.80
77582;DHT22;66726;52.388;9.986;2023-02-20T09:21:12;8.40;93.70
77582;DHT22;66726;52.388;9.986;2023-02-20T09:23:41;8.30;94.00
77582;DHT22;66726;52.388;9.986;2023-02-20T09:26:10;8.20;94.00
77582;DHT22;66726;52.388;9.986;2023-02-20T09:28:38;8.20;94.50
77582;DHT22;66726;52.388;9.986;2023-02-20T09:31:07;8.20;94.50
77582;DHT22;66726;52.388;9.986;2023-02-20T09:33:36;8.20;94.70
77582;DHT22;66726;52.388;9.986;2023-02-20T09:36:05;8.20;95.00
77582;DHT22;66726;52.388;9.986;2023-02-20T09:38:34;8.10;95.20
77582;DHT22;66726;52.388;9.986;2023-02-20T09:41:02;8.10;95.30
77582;DHT22;66726;52.388;9.986;2023-02-20T09:43:40;8.10;95.60
77582;DHT22;66726;52.388;9.986;2023-02-20T09:46:18;8.10;95.70
77582;DHT22;66726;52.388;9.986;2023-02-20T09:48:59;8.10;95.80
77582;DHT22;66726;52.388;9.986;2023-02-20T09:51:34;8.10;95.90
77582;DHT22;66726;52.388;9.986;2023-02-20T09:54:13;8.10;96.00
77582;DHT22;66726;52.388;9.986;2023-02-20T09:56:49;8.10;96.00
77582;DHT22;66726;52.388;9.986;2023-02-20T09:59:21;8.10;96.20
77582;DHT22;66726;52.388;9.986;2023-02-20T10:01:56;8.10;96.40
77582;DHT22;66726;52.388;9.986;2023-02-20T10:04:30;8.10;96.30
77582;DHT22;66726;52.388;9.986;2023-02-20T10:07:14;8.10;96.50
77582;DHT22;66726;52.388;9.986;2023-02-20T10:09:47;8.10;97.00
77582;DHT22;66726;52.388;9.986;2023-02-20T10:12:21;8.10;96.60
77582;DHT22;66726;52.388;9.986;2023-02-20T10:15:16;8.10;96.70
77582;DHT22;66726;52.388;9.986;2023-02-20T10:17:59;8.10;96.80
77582;DHT22;66726;52.388;9.986;2023-02-20T10:20:41;8.10;96.90
77582;DHT22;66726;52.388;9.986;2023-02-20T10:23:21;8.20;96.90
77582;DHT22;66726;52.388;9.986;2023-02-20T10:26:02;8.20;97.00
77582;DHT22;66726;52.388;9.986;2023-02-20T10:28:33;8.20;97.10
77582;DHT22;66726;52.388;9.986;2023-02-20T10:31:08;8.20;97.10
77582;DHT22;66726;52.388;9.986;2023-02-20T10:33:53;8.20;97.20
77582;DHT22;66726;52.388;9.986;2023-02-20T10:36:33;8.20;97.30
77582;DHT22;66726;52.388;9.986;2023-02-20T10:39:08;8.20;97.40
77582;DHT22;66726;52.388;9.986;2023-02-20T10:41:42;8.30;97.30
77582;DHT22;66726;52.388;9.986;2023-02-20T10:44:20;8.20;97.40
77582;DHT22;66726;52.388;9.986;2023-02-20T10:46:56;8.20;97.40
77582;DHT22;66726;52.388;9.986;2023-02-20T10:49:37;8.20;97.50
77582;DHT22;66726;52.388;9.986;2023-02-20T10:52:16;8.30;97.50
77582;DHT22;66726;52.388;9.986;2023-02-20T10:55:06;8.20;97.50
77582;DHT22;66726;52.388;9.986;2023-02-20T10:57:41;8.20;97.70
77582;DHT22;66726;52.388;9.986;2023-02-20T11:00:16;8.30;97.60
77582;DHT22;66726;52.388;9.986;2023-02-20T11:02:54;8.30;97.70
77582;DHT22;66726;52.388;9.986;2023-02-20T11:05:31;8.30;97.70
77582;DHT22;66726;52.388;9.986;2023-02-20T11:08:06;8.30;97.80
77582;DHT22;66726;52.388;9.986;2023-02-20T11:10:34;8.20;97.80
77582;DHT22;66726;52.388;9.986;2023-02-20T11:13:09;8.20;97.80
77582;DHT22;66726;52.388;9.986;2023-02-20T11:15:44;8.20;98.00
77582;DHT22;66726;52.388;9.986;2023-02-20T11:18:22;8.20;97.90
77582;DHT22;66726;52.388;9.986;2023-02-20T11:20:54;8.20;98.00
77582;DHT22;66726;52.388;9.986;2023-02-20T11:23:39;8.10;98.00
77582;DHT22;66726;52.388;9.986;2023-02-20T11:26:24;8.20;98.10
77582;DHT22;66726;52.388;9.986;2023-02-20T11:28:58;8.10;98.20
77582;DHT22;66726;52.388;9.986;2023-02-20T11:31:30;8.10;98.20
77582;DHT22;66726;52.388;9.986;2023-02-20T11:34:00;8.10;98.10
77582;DHT22;66726;52.388;9.986;2023-02-20T11:36:34;8.10;98.20
77582;DHT22;66726;52.388;9.986;2023-02-20T11:39:18;8.20;98.30
77582;DHT22;66726;52.388;9.986;2023-02-20T11:42:02;8.10;98.20
77582;DHT22;66726;52.388;9.986;2023-02-20T11:44:32;8.20;98.30
77582;DHT22;66726;52.388;9.986;2023-02-20T11:47:18;8.10;98.30
77582;DHT22;66726;52.388;9.986;2023-02-20T11:50:15;8.10;98.40
77582;DHT22;66726;52.388;9.986;2023-02-20T11:52:57;8.10;98.40
77582;DHT22;66726;52.388;9.986;2023-02-20T11:55:32;8.10;98.50
77582;DHT22;66726;52.388;9.986;2023-02-20T11:58:01;8.10;98.50
77582;DHT22;66726;52.388;9.986;2023-02-20T12:00:43;8.10;98.50
77582;DHT22;66726;52.388;9.986;2023-02-20T12:03:19;8.20;98.40
77582;DHT22;66726;52.388;9.986;2023-02-20T12:05:48;8.10;98.50
77582;DHT22;66726;52.388;9.986;2023-02-20T12:08:30;8.20;98.60
77582;DHT22;66726;52.388;9.986;2023-02-20T12:11:06;8.10;98.60
77582;DHT22;66726;52.388;9.986;2023-02-20T12:13:41;8.10;98.60
77582;DHT22;66726;52.388;9.986;2023-02-20T12:16:32;8.10;98.60
77582;DHT22;66726;52.388;9.986;2023-02-20T12:19:13;8.10;98.60
77582;DHT22;66726;52.388;9.986;2023-02-20T12:21:54;8.10;98.70
77582;DHT22;66726;52.388;9.986;2023-02-20T12:24:42;8.10;98.70
77582;DHT22;66726;52.388;9.986;2023-02-20T12:27:45;8.20;98.80
77582;DHT22;66726;52.388;9.986;2023-02-20T12:30:30;8.10;98.90
77582;DHT22;66726;52.388;9.986;2023-02-20T12:33:23;8.10;99.00
77582;DHT22;66726;52.388;9.986;2023-02-20T12:36:09;8.10;99.10
77582;DHT22;66726;52.388;9.986;2023-02-20T12:38:48;8.20;99.40
77582;DHT22;66726;52.388;9.986;2023-02-20T12:41:28;8.10;99.50
77582;DHT22;66726;52.388;9.986;2023-02-20T12:44:19;8.20;99.70
77582;DHT22;66726;52.388;9.986;2023-02-20T12:47:02;8.10;99.90
77582;DHT22;66726;52.388;9.986;2023-02-20T12:49:54;8.20;99.90
77582;DHT22;66726;52.388;9.986;2023-02-20T12:52:54;8.10;99.90
77582;DHT22;66726;52.388;9.986;2023-02-20T12:55:37;8.10;99.90
77582;DHT22;66726;52.388;9.986;2023-02-20T12:58:23;8.10;99.90
77582;DHT22;66726;52.388;9.986;2023-02-20T13:01:02;8.10;99.90
77582;DHT22;66726;52.388;9.986;2023-02-20T13:03:43;8.10;99.90
77582;DHT22;66726;52.388;9.986;2023-02-20T13:06:24;8.10;99.90
77582;DHT22;66726;52.388;9.986;2023-02-20T13:09:03;8.10;99.90
77582;DHT22;66726;52.388;9.986;2023-02-20T13:11:41;8.10;99.90
77582;DHT22;66726;52.388;9.986;2023-02-20T13:14:22;8.10;99.90
77582;DHT22;66726;52.388;9.986;2023-02-20T13:17:08;8.10;99.90
77582;DHT22;66726;52.388;9.986;2023-02-20T13:19:53;8.20;99.90
77582;DHT22;66726;52.388;9.986;2023-02-20T13:22:24;8.20;99.90
77582;DHT22;66726;52.388;9.986;2023-02-20T13:24:52;8.20;99.90
77582;DHT22;66726;52.388;9.986;2023-02-20T13:27:31;8.20;99.90
77582;DHT22;66726;52.388;9.986;2023-02-20T13:30:00;8.20;99.90
77582;DHT22;66726;52.388;9.986;2023-02-20T13:32:38;8.20;99.90
77582;DHT22;66726;52.388;9.986;2023-02-20T13:35:32;8.30;99.90
77582;DHT22;66726;52.388;9.986;2023-02-20T13:38:10;8.30;99.90
77582;DHT22;66726;52.388;9.986;2023-02-20T13:40:43;8.30;99.90
77582;DHT22;66726;52.388;9.986;2023-02-20T13:43:23;8.30;99.90
77582;DHT22;66726;52.388;9.986;2023-02-20T13:46:12;8.30;99.90
77582;DHT22;66726;52.388;9.986;2023-02-20T13:48:48;8.30;99.90
77582;DHT22;66726;52.388;9.986;2023-02-20T13:51:34;8.30;99.90
77582;DHT22;66726;52.388;9.986;2023-02-20T13:54:23;8.40;99.90
77582;DHT22;66726;52.388;9.986;2023-02-20T13:56:56;8.40;99.90
77582;DHT22;66726;52.388;9.986;2023-02-20T13:59:30;8.40;99.90
77582;DHT22;66726;52.388;9.986;2023-02-20T14:02:11;8.40;99.90
77582;DHT22;66726;52.388;9.986;2023-02-20T14:04:59;8.40;99.90
77582;DHT22;66726;52.388;9.986;2023-02-20T14:07:32;8.40;99.90
77582;DHT22;66726;52.388;9.986;2023-02-20T14:10:06;8.40;99.90
77582;DHT22;66726;52.388;9.986;2023-02-20T14:12:42;8.40;99.90
77582;DHT22;66726;52.388;9.986;2023-02-20T14:15:12;8.40;99.90
77582;DHT22;66726;52.388;9.986;2023-02-20T14:17:41;8.50;99.90
77582;DHT22;66726;52.388;9.986;2023-02-20T14:20:19;8.50;99.90
77582;DHT22;66726;52.388;9.986;2023-02-20T14:23:06;8.40;99.90
77582;DHT22;66726;52.388;9.986;2023-02-20T14:25:36;8.30;99.90
77582;DHT22;66726;52.388;9.986;2023-02-20T14:28:13;8.40;99.90
77582;DHT22;66726;52.388;9.986;2023-02-20T14:30:42;8.40;99.90
77582;DHT22;66726;52.388;9.986;2023-02-20T14:33:23;8.30;99.90
77582;DHT22;66726;52.388;9.986;2023-02-20T14:36:13;8.30;99.90
77582;DHT22;66726;52.388;9.986;2023-02-20T14:39:05;8.30;99.90
77582;DHT22;66726;52.388;9.986;2023-02-20T14:41:50;8.30;99.90
77582;DHT22;66726;52.388;9.986;2023-02-20T14:44:20;8.30;99.90
77582;DHT22;66726;52.388;9.986;2023-02-20T14:46:52;8.30;99.90
77582;DHT22;66726;52.388;9.986;2023-02-20T14:49:24;8.30;99.90
77582;DHT22;66726;52.388;9.986;2023-02-20T14:52:12;8.30;99.90
77582;DHT22;66726;52.388;9.986;2023-02-20T14:54:44;8.30;99.90
77582;DHT22;66726;52.388;9.986;2023-02-20T14:57:23;8.40;99.90
77582;DHT22;66726;52.388;9.986;2023-02-20T15:00:10;8.40;99.90
77582;DHT22;66726;52.388;9.986;2023-02-20T15:02:52;8.40;99.90
77582;DHT22;66726;52.388;9.986;2023-02-20T15:05:27;8.30;99.90
77582;DHT22;66726;52.388;9.986;2023-02-20T15:08:05;8.40;99.90
77582;DHT22;66726;52.388;9.986;2023-02-20T15:10:48;8.40;99.90
77582;DHT22;66726;52.388;9.986;2023-02-20T15:13:20;8.30;99.90
77582;DHT22;66726;52.388;9.986;2023-02-20T15:16:04;8.30;99.90
77582;DHT22;66726;52.388;9.986;2023-02-20T15:18:35;8.30;99.90
77582;DHT22;66726;52.388;9.986;2023-02-20T15:21:05;8.30;99.90
77582;DHT22;66726;52.388;9.986;2023-02-20T15:23:36;8.30;99.90
77582;DHT22;66726;52.388;9.986;2023-02-20T15:26:28;8.30;99.90
77582;DHT22;66726;52.388;9.986;2023-02-20T15:29:12;8.30;99.90
77582;DHT22;66726;52.388;9.986;2023-02-20T15:31:54;8.30;99.90
77582;DHT22;66726;52.388;9.986;2023-02-20T15:34:25;8.30;99.90
77582;DHT22;66726;52.388;9.986;2023-02-20T15:36:56;8.30;99.90
77582;DHT22;66726;52.388;9.986;2023-02-20T15:39:26;8.30;99.90
77582;DHT22;66726;52.388;9.986;2023-02-20T15:41:54;8.20;99.90
77582;DHT22;66726;52.388;9.986;2023-02-20T15:44:25;8.20;99.90
77582;DHT22;66726;52.388;9.986;2023-02-20T15:46:53;8.20;99.90
77582;DHT22;66726;52.388;9.986;2023-02-20T15:49:21;8.20;99.90
77582;DHT22;66726;52.388;9.986;2023-02-20T15:51:49;8.20;99.90
77582;DHT22;66726;52.388;9.986;2023-02-20T15:54:26;8.20;99.90
77582;DHT22;66726;52.388;9.986;2023-02-20T15:56:54;8.20;99.90
77582;DHT22;66726;52.388;9.986;2023-02-20T15:59:23;8.20;99.90
77582;DHT22;66726;52.388;9.986;2023-02-20T16:01:51;8.20;99.90
77582;DHT22;66726;52.388;9.986;2023-02-20T16:04:19;8.20;99.90
77582;DHT22;66726;52.388;9.986;2023-02-20T16:06:47;8.20;99.90
77582;DHT22;66726;52.388;9.986;2023-02-20T16:09:16;8.30;99.90
77582;DHT22;66726;52.388;9.986;2023-02-20T16:11:46;8.20;99.90
77582;DHT22;66726;52.388;9.986;2023-02-20T16:14:14;8.20;99.90
77582;DHT22;66726;52.388;9.986;2023-02-20T16:16:44;8.30;99.90
77582;DHT22;66726;52.388;9.986;2023-02-20T16:19:16;8.30;99.90
77582;DHT22;66726;52.388;9.986;2023-02-20T16:21:53;8.30;99.90
77582;DHT22;66726;52.388;9.986;2023-02-20T16:24:25;8.30;99.90
77582;DHT22;66726;52.388;9.986;2023-02-20T16:26:55;8.30;99.90
77582;DHT22;66726;52.388;9.986;2023-02-20T16:29:30;8.30;99.90